sensor_id;sensor_type;location;lat;lon;timestamp;temperature;humidity
3562;DHT22;1795;52.074;4.754;2023-04-24T00:00:51;11.00;99.90
3562;DHT22;1795;52.074;4.754;2023-04-24T00:03:19;11.00;99.90
3562;DHT22;1795;52.074;4.754;2023-04-24T00:05:49;10.90;99.90
3562;DHT22;1795;52.074;4.754;2023-04-24T00:08:17;10.90;99.90
3562;DHT22;1795;52.074;4.754;2023-04-24T00:10:45;10.90;99.90
3562;DHT22;1795;52.074;4.754;2023-04-24T00:13:15;10.90;99.90
3562;DHT22;1795;52.074;4.754;2023-04-24T00:15:43;10.90;99.90
3562;DHT22;1795;52.074;4.754;2023-04-24T00:18:11;10.90;99.90
3562;DHT22;1795;52.074;4.754;2023-04-24T00:20:38;10.80;99.90
3562;DHT22;1795;52.074;4.754;2023-04-24T00:23:06;10.80;99.90
3562;DHT22;1795;52.074;4.754;2023-04-24T00:25:34;10.80;99.90
3562;DHT22;1795;52.074;4.754;2023-04-24T00:28:02;10.80;99.90
3562;DHT22;1795;52.074;4.754;2023-04-24T00:30:32;10.80;99.90
3562;DHT22;1795;52.074;4.754;2023-04-24T00:32:59;10.80;99.90
3562;DHT22;1795;52.074;4.754;2023-04-24T00:35:27;10.80;99.90
3562;DHT22;1795;52.074;4.754;2023-04-24T00:37:55;10.80;99.90
3562;DHT22;1795;52.074;4.754;2023-04-24T00:40:23;10.80;99.90
3562;DHT22;1795;52.074;4.754;2023-04-24T00:42:51;10.80;99.90
3562;DHT22;1795;52.074;4.754;2023-04-24T00:45:19;10.80;99.90
3562;DHT22;1795;52.074;4.754;2023-04-24T00:47:49;10.80;99.90
3562;DHT22;1795;52.074;4.754;2023-04-24T00:50:21;10.80;99.90
3562;DHT22;1795;52.074;4.754;2023-04-24T00:52:49;10.80;99.90
3562;DHT22;1795;52.074;4.754;2023-04-24T00:55:17;10.70;99.90
3562;DHT22;1795;52.074;4.754;2023-04-24T00:57:45;10.70;99.90
3562;DHT22;1795;52.074;4.754;2023-04-24T01:00:15;10.80;99.90
3562;DHT22;1795;52.074;4.754;2023-04-24T01:02:43;10.70;99.90
3562;DHT22;1795;52.074;4.754;2023-04-24T01:05:14;10.70;99.90
3562;DHT22;1795;52.074;4.754;2023-04-24T01:07:45;10.70;99.90
3562;DHT22;1795;52.074;4.754;2023-04-24T01:10:15;10.70;99.90
3562;DHT22;1795;52.074;4.754;2023-04-24T01:12:44;10.70;99.90
3562;DHT22;1795;52.074;4.754;2023-04-24T01:15:13;10.70;99.90
3562;DHT22;1795;52.074;4.754;2023-04-24T01:17:41;10.70;99.90
3562;DHT22;1795;52.074;4.754;2023-04-24T01:20:09;10.70;99.90
3562;DHT22;1795;52.074;4.754;2023-04-24T01:22:39;10.70;99.90
3562;DHT22;1795;52.074;4.754;2023-04-24T01:25:08;10.70;99.90
3562;DHT22;1795;52.074;4.754;2023-04-24T01:27:36;10.70;99.90
3562;DHT22;1795;52.074;4.754;2023-04-24T01:30:06;10.70;99.90
3562;DHT22;1795;52.074;4.754;2023-04-24T01:32:34;10.70;99.90
3562;DHT22;1795;52.074;4.754;2023-04-24T01:35:03;10.70;99.90
3562;DHT22;1795;52.074;4.754;2023-04-24T01:37:31;10.70;99.90
3562;DHT22;1795;52.074;4.754;2023-04-24T01:40:01;10.60;99.90
3562;DHT22;1795;52.074;4.754;2023-04-24T01:42:30;10.60;99.90
3562;DHT22;1795;52.074;4.754;2023-04-24T01:44:59;10.60;99.90
3562;DHT22;1795;52.074;4.754;2023-04-24T01:47:27;10.60;99.90
3562;DHT22;1795;52.074;4.754;2023-04-24T01:49:56;10.60;99.90
3562;DHT22;1795;52.074;4.754;2023-04-24T01:52:24;10.60;99.90
3562;DHT22;1795;52.074;4.754;2023-04-24T01:54:52;10.60;99.90
3562;DHT22;1795;52.074;4.754;2023-04-24T01:57:23;10.60;99.90
3562;DHT22;1795;52.074;4.754;2023-04-24T01:59:51;10.60;99.90
3562;DHT22;1795;52.074;4.754;2023-04-24T02:02:19;10.60;99.90
3562;DHT22;1795;52.074;4.754;2023-04-24T02:04:48;10.60;99.90
3562;DHT22;1795;52.074;4.754;2023-04-24T02:07:16;10.60;99.90
3562;DHT22;1795;52.074;4.754;2023-04-24T02:09:43;10.60;99.90
3562;DHT22;1795;52.074;4.754;2023-04-24T02:12:11;10.60;99.90
3562;DHT22;1795;52.074;4.754;2023-04-24T02:14:41;10.60;99.90
3562;DHT22;1795;52.074;4.754;2023-04-24T02:17:09;10.60;99.90
3562;DHT22;1795;52.074;4.754;2023-04-24T02:19:39;10.60;99.90
3562;DHT22;1795;52.074;4.754;2023-04-24T02:22:08;10.60;99.90
3562;DHT22;1795;52.074;4.754;2023-04-24T02:24:37;10.60;99.90
3562;DHT22;1795;52.074;4.754;2023-04-24T02:27:05;10.60;99.90
3562;DHT22;1795;52.074;4.754;2023-04-24T02:29:33;10.60;99.90
3562;DHT22;1795;52.074;4.754;2023-04-24T02:32:02;10.60;99.90
3562;DHT22;1795;52.074;4.754;2023-04-24T02:34:30;10.60;99.90
3562;DHT22;1795;52.074;4.754;2023-04-24T02:36:58;10.60;99.90
3562;DHT22;1795;52.074;4.754;2023-04-24T02:39:26;10.60;99.90
3562;DHT22;1795;52.074;4.754;2023-04-24T02:41:54;10.50;99.90
3562;DHT22;1795;52.074;4.754;2023-04-24T02:44:21;10.50;99.90
3562;DHT22;1795;52.074;4.754;2023-04-24T02:46:49;10.50;99.90
3562;DHT22;1795;52.074;4.754;2023-04-24T02:49:19;10.50;99.90
3562;DHT22;1795;52.074;4.754;2023-04-24T02:51:46;10.50;99.90
3562;DHT22;1795;52.074;4.754;2023-04-24T02:54:14;10.50;99.90
3562;DHT22;1795;52.074;4.754;2023-04-24T02:56:42;10.50;99.90
3562;DHT22;1795;52.074;4.754;2023-04-24T02:59:10;10.50;99.90
3562;DHT22;1795;52.074;4.754;2023-04-24T03:01:38;10.50;99.90
3562;DHT22;1795;52.074;4.754;2023-04-24T03:04:06;10.50;99.90
3562;DHT22;1795;52.074;4.754;2023-04-24T03:06:36;10.50;99.90
3562;DHT22;1795;52.074;4.754;2023-04-24T03:09:04;10.50;99.90
3562;DHT22;1795;52.074;4.754;2023-04-24T03:11:32;10.50;99.90
3562;DHT22;1795;52.074;4.754;2023-04-24T03:13:59;10.50;99.90
3562;DHT22;1795;52.074;4.754;2023-04-24T03:16:27;10.50;99.90
3562;DHT22;1795;52.074;4.754;2023-04-24T03:18:55;10.50;99.90
3562;DHT22;1795;52.074;4.754;2023-04-24T03:21:23;10.50;99.90
3562;DHT22;1795;52.074;4.754;2023-04-24T03:23:52;10.50;99.90
3562;DHT22;1795;52.074;4.754;2023-04-24T03:26:20;10.40;99.90
3562;DHT22;1795;52.074;4.754;2023-04-24T03:28:48;10.40;99.90
3562;DHT22;1795;52.074;4.754;2023-04-24T03:31:16;10.40;99.90
3562;DHT22;1795;52.074;4.754;2023-04-24T03:33:45;10.40;99.90
3562;DHT22;1795;52.074;4.754;2023-04-24T03:36:13;10.40;99.90
3562;DHT22;1795;52.074;4.754;2023-04-24T03:38:41;10.40;99.90
3562;DHT22;1795;52.074;4.754;2023-04-24T03:41:10;10.40;99.90
3562;DHT22;1795;52.074;4.754;2023-04-24T03:43:38;10.40;99.90
3562;DHT22;1795;52.074;4.754;2023-04-24T03:46:06;10.30;99.90
3562;DHT22;1795;52.074;4.754;2023-04-24T03:48:36;10.30;99.90
3562;DHT22;1795;52.074;4.754;2023-04-24T03:51:04;10.30;99.90
3562;DHT22;1795;52.074;4.754;2023-04-24T03:53:32;10.30;99.90
3562;DHT22;1795;52.074;4.754;2023-04-24T03:56:00;10.30;99.90
3562;DHT22;1795;52.074;4.754;2023-04-24T03:58:29;10.30;99.90
3562;DHT22;1795;52.074;4.754;2023-04-24T04:00:57;10.30;99.90
3562;DHT22;1795;52.074;4.754;2023-04-24T04:03:25;10.30;99.90
3562;DHT22;1795;52.074;4.754;2023-04-24T04:05:53;10.30;99.90
3562;DHT22;1795;52.074;4.754;2023-04-24T04:08:21;10.30;99.90
3562;DHT22;1795;52.074;4.754;2023-04-24T04:10:50;10.30;99.90
3562;DHT22;1795;52.074;4.754;2023-04-24T04:13:17;10.30;99.90
3562;DHT22;1795;52.074;4.754;2023-04-24T04:15:47;10.30;99.90
3562;DHT22;1795;52.074;4.754;2023-04-24T04:18:15;10.30;99.90
3562;DHT22;1795;52.074;4.754;2023-04-24T04:20:43;10.30;99.90
3562;DHT22;1795;52.074;4.754;2023-04-24T04:23:10;10.30;99.90
3562;DHT22;1795;52.074;4.754;2023-04-24T04:25:38;10.30;99.90
3562;DHT22;1795;52.074;4.754;2023-04-24T04:28:06;10.30;99.90
3562;DHT22;1795;52.074;4.754;2023-04-24T04:30:34;10.30;99.90
3562;DHT22;1795;52.074;4.754;2023-04-24T04:33:06;10.30;99.90
3562;DHT22;1795;52.074;4.754;2023-04-24T04:35:34;10.30;99.90
3562;DHT22;1795;52.074;4.754;2023-04-24T04:38:02;10.30;99.90
3562;DHT22;1795;52.074;4.754;2023-04-24T04:40:31;10.20;99.90
3562;DHT22;1795;52.074;4.754;2023-04-24T04:42:59;10.20;99.90
3562;DHT22;1795;52.074;4.754;2023-04-24T04:45:27;10.20;99.90
3562;DHT22;1795;52.074;4.754;2023-04-24T04:47:55;10.20;99.90
3562;DHT22;1795;52.074;4.754;2023-04-24T04:50:24;10.20;99.90
3562;DHT22;1795;52.074;4.754;2023-04-24T04:52:53;10.20;99.90
3562;DHT22;1795;52.074;4.754;2023-04-24T04:55:21;10.20;99.90
3562;DHT22;1795;52.074;4.754;2023-04-24T04:57:49;10.20;99.90
3562;DHT22;1795;52.074;4.754;2023-04-24T05:00:17;10.20;99.90
3562;DHT22;1795;52.074;4.754;2023-04-24T05:02:45;10.20;99.90
3562;DHT22;1795;52.074;4.754;2023-04-24T05:05:13;10.20;99.90
3562;DHT22;1795;52.074;4.754;2023-04-24T05:07:43;10.20;99.90
3562;DHT22;1795;52.074;4.754;2023-04-24T05:10:11;10.20;99.90
3562;DHT22;1795;52.074;4.754;2023-04-24T05:12:39;10.20;99.90
3562;DHT22;1795;52.074;4.754;2023-04-24T05:15:07;10.20;99.90
3562;DHT22;1795;52.074;4.754;2023-04-24T05:17:35;10.20;99.90
3562;DHT22;1795;52.074;4.754;2023-04-24T05:20:04;10.10;99.90
3562;DHT22;1795;52.074;4.754;2023-04-24T05:22:32;10.20;99.90
3562;DHT22;1795;52.074;4.754;2023-04-24T05:25:02;10.10;99.90
3562;DHT22;1795;52.074;4.754;2023-04-24T05:27:30;10.10;99.90
3562;DHT22;1795;52.074;4.754;2023-04-24T05:29:58;10.10;99.90
3562;DHT22;1795;52.074;4.754;2023-04-24T05:32:26;10.10;99.90
3562;DHT22;1795;52.074;4.754;2023-04-24T05:34:54;10.10;99.90
3562;DHT22;1795;52.074;4.754;2023-04-24T05:37:22;10.10;99.90
3562;DHT22;1795;52.074;4.754;2023-04-24T05:39:50;10.10;99.90
3562;DHT22;1795;52.074;4.754;2023-04-24T05:42:19;10.10;99.90
3562;DHT22;1795;52.074;4.754;2023-04-24T05:44:47;10.10;99.90
3562;DHT22;1795;52.074;4.754;2023-04-24T05:47:18;10.10;99.90
3562;DHT22;1795;52.074;4.754;2023-04-24T05:49:46;10.10;99.90
3562;DHT22;1795;52.074;4.754;2023-04-24T05:52:14;10.10;99.90
3562;DHT22;1795;52.074;4.754;2023-04-24T05:54:42;10.00;99.90
3562;DHT22;1795;52.074;4.754;2023-04-24T05:57:09;10.00;99.90
3562;DHT22;1795;52.074;4.754;2023-04-24T05:59:39;10.00;99.90
3562;DHT22;1795;52.074;4.754;2023-04-24T06:02:07;10.00;99.90
3562;DHT22;1795;52.074;4.754;2023-04-24T06:04:35;10.00;99.90
3562;DHT22;1795;52.074;4.754;2023-04-24T06:07:03;10.00;99.90
3562;DHT22;1795;52.074;4.754;2023-04-24T06:09:31;10.00;99.90
3562;DHT22;1795;52.074;4.754;2023-04-24T06:11:59;10.00;99.90
3562;DHT22;1795;52.074;4.754;2023-04-24T06:14:27;10.00;99.90
3562;DHT22;1795;52.074;4.754;2023-04-24T06:16:57;9.90;99.90
3562;DHT22;1795;52.074;4.754;2023-04-24T06:19:25;9.90;99.90
3562;DHT22;1795;52.074;4.754;2023-04-24T06:21:53;9.90;99.90
3562;DHT22;1795;52.074;4.754;2023-04-24T06:24:21;9.90;99.90
3562;DHT22;1795;52.074;4.754;2023-04-24T06:26:49;9.90;99.90
3562;DHT22;1795;52.074;4.754;2023-04-24T06:29:17;9.90;99.90
3562;DHT22;1795;52.074;4.754;2023-04-24T06:31:45;9.90;99.90
3562;DHT22;1795;52.074;4.754;2023-04-24T06:34:14;9.90;99.90
3562;DHT22;1795;52.074;4.754;2023-04-24T06:36:42;9.90;99.90
3562;DHT22;1795;52.074;4.754;2023-04-24T06:39:10;9.90;99.90
3562;DHT22;1795;52.074;4.754;2023-04-24T06:41:38;9.90;99.90
3562;DHT22;1795;52.074;4.754;2023-04-24T06:44:07;9.90;99.90
3562;DHT22;1795;52.074;4.754;2023-04-24T06:46:35;9.80;99.90
3562;DHT22;1795;52.074;4.754;2023-04-24T06:49:06;9.80;99.90
3562;DHT22;1795;52.074;4.754;2023-04-24T06:51:35;9.80;99.90
3562;DHT22;1795;52.074;4.754;2023-04-24T06:54:03;9.80;99.90
3562;DHT22;1795;52.074;4.754;2023-04-24T06:56:31;9.80;99.90
3562;DHT22;1795;52.074;4.754;2023-04-24T06:59:00;9.80;99.90
3562;DHT22;1795;52.074;4.754;2023-04-24T07:01:28;9.80;99.90
3562;DHT22;1795;52.074;4.754;2023-04-24T07:03:56;9.80;99.90
3562;DHT22;1795;52.074;4.754;2023-04-24T07:06:25;9.80;99.90
3562;DHT22;1795;52.074;4.754;2023-04-24T07:08:55;9.80;99.90
3562;DHT22;1795;52.074;4.754;2023-04-24T07:11:23;9.80;99.90
3562;DHT22;1795;52.074;4.754;2023-04-24T07:13:55;9.80;99.90
3562;DHT22;1795;52.074;4.754;2023-04-24T07:16:23;9.80;99.90
3562;DHT22;1795;52.074;4.754;2023-04-24T07:18:52;9.80;99.90
3562;DHT22;1795;52.074;4.754;2023-04-24T07:21:20;9.80;99.90
3562;DHT22;1795;52.074;4.754;2023-04-24T07:23:48;9.80;99.90
3562;DHT22;1795;52.074;4.754;2023-04-24T07:26:17;9.80;99.90
3562;DHT22;1795;52.074;4.754;2023-04-24T07:28:45;9.80;99.90
3562;DHT22;1795;52.074;4.754;2023-04-24T07:31:13;9.80;99.90
3562;DHT22;1795;52.074;4.754;2023-04-24T07:33:41;9.80;99.90
3562;DHT22;1795;52.074;4.754;2023-04-24T07:36:09;9.80;99.90
3562;DHT22;1795;52.074;4.754;2023-04-24T07:38:42;9.80;99.90
3562;DHT22;1795;52.074;4.754;2023-04-24T07:41:09;9.80;99.90
3562;DHT22;1795;52.074;4.754;2023-04-24T07:43:39;9.80;99.90
3562;DHT22;1795;52.074;4.754;2023-04-24T07:46:07;9.80;99.90
3562;DHT22;1795;52.074;4.754;2023-04-24T07:48:35;9.80;99.90
3562;DHT22;1795;52.074;4.754;2023-04-24T07:51:03;9.80;99.90
3562;DHT22;1795;52.074;4.754;2023-04-24T07:53:31;9.80;99.90
3562;DHT22;1795;52.074;4.754;2023-04-24T07:55:59;9.80;99.90
3562;DHT22;1795;52.074;4.754;2023-04-24T07:58:27;9.80;99.90
3562;DHT22;1795;52.074;4.754;2023-04-24T08:00:56;9.80;99.90
3562;DHT22;1795;52.074;4.754;2023-04-24T08:03:24;9.80;99.90
3562;DHT22;1795;52.074;4.754;2023-04-24T08:05:52;9.80;99.90
3562;DHT22;1795;52.074;4.754;2023-04-24T08:08:21;9.80;99.90
3562;DHT22;1795;52.074;4.754;2023-04-24T08:10:50;9.80;99.90
3562;DHT22;1795;52.074;4.754;2023-04-24T08:13:17;9.90;99.90
3562;DHT22;1795;52.074;4.754;2023-04-24T08:15:45;9.90;99.90
3562;DHT22;1795;52.074;4.754;2023-04-24T08:18:15;9.90;99.90
3562;DHT22;1795;52.074;4.754;2023-04-24T08:20:43;9.90;99.90
3562;DHT22;1795;52.074;4.754;2023-04-24T08:23:11;9.90;99.90
3562;DHT22;1795;52.074;4.754;2023-04-24T08:25:40;9.90;99.90
3562;DHT22;1795;52.074;4.754;2023-04-24T08:28:09;9.90;99.90
3562;DHT22;1795;52.074;4.754;2023-04-24T08:30:37;9.90;99.90
3562;DHT22;1795;52.074;4.754;2023-04-24T08:33:05;10.00;99.90
3562;DHT22;1795;52.074;4.754;2023-04-24T08:35:35;10.00;99.90
3562;DHT22;1795;52.074;4.754;2023-04-24T08:38:03;10.00;99.90
3562;DHT22;1795;52.074;4.754;2023-04-24T08:40:34;10.00;99.90
3562;DHT22;1795;52.074;4.754;2023-04-24T08:43:03;10.00;99.90
3562;DHT22;1795;52.074;4.754;2023-04-24T08:45:32;10.10;99.90
3562;DHT22;1795;52.074;4.754;2023-04-24T08:48:01;10.10;99.90
3562;DHT22;1795;52.074;4.754;2023-04-24T08:50:31;10.10;99.90
3562;DHT22;1795;52.074;4.754;2023-04-24T08:53:01;10.10;99.90
3562;DHT22;1795;52.074;4.754;2023-04-24T08:55:31;10.20;99.90
3562;DHT22;1795;52.074;4.754;2023-04-24T08:58:01;10.20;99.90
3562;DHT22;1795;52.074;4.754;2023-04-24T09:00:30;10.20;99.90
3562;DHT22;1795;52.074;4.754;2023-04-24T09:03:00;10.20;99.90
3562;DHT22;1795;52.074;4.754;2023-04-24T09:05:30;10.30;99.90
3562;DHT22;1795;52.074;4.754;2023-04-24T09:08:01;10.30;99.90
3562;DHT22;1795;52.074;4.754;2023-04-24T09:10:29;10.30;99.90
3562;DHT22;1795;52.074;4.754;2023-04-24T09:12:58;10.30;99.90
3562;DHT22;1795;52.074;4.754;2023-04-24T09:15:29;10.40;99.90
3562;DHT22;1795;52.074;4.754;2023-04-24T09:17:57;10.40;99.90
3562;DHT22;1795;52.074;4.754;2023-04-24T09:20:25;10.40;99.90
3562;DHT22;1795;52.074;4.754;2023-04-24T09:22:54;10.40;99.90
3562;DHT22;1795;52.074;4.754;2023-04-24T09:25:30;10.50;99.90
3562;DHT22;1795;52.074;4.754;2023-04-24T09:28:01;10.50;99.90
3562;DHT22;1795;52.074;4.754;2023-04-24T09:30:29;10.50;99.90
3562;DHT22;1795;52.074;4.754;2023-04-24T09:33:13;10.50;99.90
3562;DHT22;1795;52.074;4.754;2023-04-24T09:35:41;10.50;99.90
3562;DHT22;1795;52.074;4.754;2023-04-24T09:38:10;10.50;99.90
3562;DHT22;1795;52.074;4.754;2023-04-24T09:40:40;10.50;99.90
3562;DHT22;1795;52.074;4.754;2023-04-24T09:43:10;10.50;99.90
3562;DHT22;1795;52.074;4.754;2023-04-24T09:45:39;10.60;99.90
3562;DHT22;1795;52.074;4.754;2023-04-24T09:48:09;10.60;99.90
3562;DHT22;1795;52.074;4.754;2023-04-24T09:50:37;10.60;99.90
3562;DHT22;1795;52.074;4.754;2023-04-24T09:53:06;10.60;99.90
3562;DHT22;1795;52.074;4.754;2023-04-24T09:55:45;10.60;99.90
3562;DHT22;1795;52.074;4.754;2023-04-24T09:58:15;10.70;99.90
3562;DHT22;1795;52.074;4.754;2023-04-24T10:00:43;10.70;99.90
3562;DHT22;1795;52.074;4.754;2023-04-24T10:03:13;10.70;99.90
3562;DHT22;1795;52.074;4.754;2023-04-24T10:05:41;10.70;99.90
3562;DHT22;1795;52.074;4.754;2023-04-24T10:08:13;10.70;99.90
3562;DHT22;1795;52.074;4.754;2023-04-24T10:10:44;10.70;99.90
3562;DHT22;1795;52.074;4.754;2023-04-24T10:13:14;10.80;99.90
3562;DHT22;1795;52.074;4.754;2023-04-24T10:15:42;10.80;99.90
3562;DHT22;1795;52.074;4.754;2023-04-24T10:18:11;10.80;99.90
3562;DHT22;1795;52.074;4.754;2023-04-24T10:20:40;10.80;99.90
3562;DHT22;1795;52.074;4.754;2023-04-24T10:23:08;10.90;99.90
3562;DHT22;1795;52.074;4.754;2023-04-24T10:25:36;10.90;99.90
3562;DHT22;1795;52.074;4.754;2023-04-24T10:28:05;10.90;99.90
3562;DHT22;1795;52.074;4.754;2023-04-24T10:30:36;11.00;99.90
3562;DHT22;1795;52.074;4.754;2023-04-24T10:33:07;11.00;99.90
3562;DHT22;1795;52.074;4.754;2023-04-24T10:35:39;11.10;99.90
3562;DHT22;1795;52.074;4.754;2023-04-24T10:38:11;11.10;99.90
3562;DHT22;1795;52.074;4.754;2023-04-24T10:40:40;11.20;99.90
3562;DHT22;1795;52.074;4.754;2023-04-24T10:43:09;11.20;99.90
3562;DHT22;1795;52.074;4.754;2023-04-24T10:45:38;11.30;99.90
3562;DHT22;1795;52.074;4.754;2023-04-24T10:48:08;11.30;99.90
3562;DHT22;1795;52.074;4.754;2023-04-24T10:50:45;11.40;99.90
3562;DHT22;1795;52.074;4.754;2023-04-24T10:53:15;11.40;99.90
3562;DHT22;1795;52.074;4.754;2023-04-24T10:55:46;11.50;99.90
3562;DHT22;1795;52.074;4.754;2023-04-24T10:58:16;11.60;99.90
3562;DHT22;1795;52.074;4.754;2023-04-24T11:00:48;11.60;99.90
3562;DHT22;1795;52.074;4.754;2023-04-24T11:03:24;11.70;99.90
3562;DHT22;1795;52.074;4.754;2023-04-24T11:05:56;11.70;99.90
3562;DHT22;1795;52.074;4.754;2023-04-24T11:08:29;11.70;99.90
3562;DHT22;1795;52.074;4.754;2023-04-24T11:11:00;11.80;99.90
3562;DHT22;1795;52.074;4.754;2023-04-24T11:16:43;11.80;99.90
3562;DHT22;1795;52.074;4.754;2023-04-24T11:19:21;11.80;99.90
3562;DHT22;1795;52.074;4.754;2023-04-24T11:21:55;11.80;99.90
3562;DHT22;1795;52.074;4.754;2023-04-24T11:24:28;11.80;99.90
3562;DHT22;1795;52.074;4.754;2023-04-24T11:26:59;11.80;99.90
3562;DHT22;1795;52.074;4.754;2023-04-24T11:29:46;11.80;99.90
3562;DHT22;1795;52.074;4.754;2023-04-24T11:32:24;11.80;99.90
3562;DHT22;1795;52.074;4.754;2023-04-24T11:34:54;11.80;99.90
3562;DHT22;1795;52.074;4.754;2023-04-24T11:37:23;11.80;99.90
3562;DHT22;1795;52.074;4.754;2023-04-24T11:39:53;11.70;99.90
3562;DHT22;1795;52.074;4.754;2023-04-24T11:42:22;11.70;99.90
3562;DHT22;1795;52.074;4.754;2023-04-24T11:44:53;11.70;99.90
3562;DHT22;1795;52.074;4.754;2023-04-24T11:47:29;11.70;99.90
3562;DHT22;1795;52.074;4.754;2023-04-24T11:49:58;11.70;99.90
3562;DHT22;1795;52.074;4.754;2023-04-24T11:52:27;11.70;99.90
3562;DHT22;1795;52.074;4.754;2023-04-24T11:54:55;11.70;99.90
3562;DHT22;1795;52.074;4.754;2023-04-24T11:57:25;11.70;99.90
3562;DHT22;1795;52.074;4.754;2023-04-24T11:59:55;11.70;99.90
3562;DHT22;1795;52.074;4.754;2023-04-24T12:02:24;11.70;99.90
3562;DHT22;1795;52.074;4.754;2023-04-24T12:04:54;11.70;99.90
3562;DHT22;1795;52.074;4.754;2023-04-24T12:07:23;11.70;99.90
3562;DHT22;1795;52.074;4.754;2023-04-24T12:09:56;11.70;99.90
3562;DHT22;1795;52.074;4.754;2023-04-24T12:12:26;11.70;99.90
3562;DHT22;1795;52.074;4.754;2023-04-24T12:14:55;11.70;99.90
3562;DHT22;1795;52.074;4.754;2023-04-24T12:17:25;11.70;99.90
3562;DHT22;1795;52.074;4.754;2023-04-24T12:19:59;11.70;99.90
3562;DHT22;1795;52.074;4.754;2023-04-24T12:22:42;11.60;99.90
3562;DHT22;1795;52.074;4.754;2023-04-24T12:25:11;11.70;99.90
3562;DHT22;1795;52.074;4.754;2023-04-24T12:27:39;11.60;99.90
3562;DHT22;1795;52.074;4.754;2023-04-24T12:30:11;11.60;99.90
3562;DHT22;1795;52.074;4.754;2023-04-24T12:32:43;11.60;99.90
3562;DHT22;1795;52.074;4.754;2023-04-24T12:35:13;11.60;99.90
3562;DHT22;1795;52.074;4.754;2023-04-24T12:37:42;11.60;99.90
3562;DHT22;1795;52.074;4.754;2023-04-24T12:40:13;11.60;99.90
3562;DHT22;1795;52.074;4.754;2023-04-24T12:42:43;11.60;99.90
3562;DHT22;1795;52.074;4.754;2023-04-24T12:45:12;11.60;99.90
3562;DHT22;1795;52.074;4.754;2023-04-24T12:47:42;11.60;99.90
3562;DHT22;1795;52.074;4.754;2023-04-24T12:50:11;11.60;99.90
3562;DHT22;1795;52.074;4.754;2023-04-24T12:52:41;11.60;99.90
3562;DHT22;1795;52.074;4.754;2023-04-24T12:55:09;11.60;99.90
3562;DHT22;1795;52.074;4.754;2023-04-24T12:57:39;11.70;99.90
3562;DHT22;1795;52.074;4.754;2023-04-24T13:00:08;11.70;99.90
3562;DHT22;1795;52.074;4.754;2023-04-24T13:02:37;11.80;99.90
3562;DHT22;1795;52.074;4.754;2023-04-24T13:05:06;11.80;99.90
3562;DHT22;1795;52.074;4.754;2023-04-24T13:07:34;11.80;99.90
3562;DHT22;1795;52.074;4.754;2023-04-24T13:10:04;11.90;99.90
3562;DHT22;1795;52.074;4.754;2023-04-24T13:12:32;11.90;99.90
3562;DHT22;1795;52.074;4.754;2023-04-24T13:15:00;12.00;99.90
3562;DHT22;1795;52.074;4.754;2023-04-24T13:17:28;12.00;99.90
3562;DHT22;1795;52.074;4.754;2023-04-24T13:19:56;12.00;99.90
3562;DHT22;1795;52.074;4.754;2023-04-24T13:22:24;12.10;99.90
3562;DHT22;1795;52.074;4.754;2023-04-24T13:24:52;12.10;99.90
3562;DHT22;1795;52.074;4.754;2023-04-24T13:27:21;12.20;99.90
3562;DHT22;1795;52.074;4.754;2023-04-24T13:29:49;12.20;99.90
3562;DHT22;1795;52.074;4.754;2023-04-24T13:32:17;12.30;99.90
3562;DHT22;1795;52.074;4.754;2023-04-24T13:34:46;12.40;99.90
3562;DHT22;1795;52.074;4.754;2023-04-24T13:37:14;12.40;99.90
3562;DHT22;1795;52.074;4.754;2023-04-24T13:39:42;12.40;99.90
3562;DHT22;1795;52.074;4.754;2023-04-24T13:42:10;12.50;99.90
3562;DHT22;1795;52.074;4.754;2023-04-24T13:44:40;12.50;99.90
3562;DHT22;1795;52.074;4.754;2023-04-24T13:47:08;12.50;99.90
3562;DHT22;1795;52.074;4.754;2023-04-24T13:49:36;12.60;99.90
3562;DHT22;1795;52.074;4.754;2023-04-24T13:52:04;12.60;99.90
3562;DHT22;1795;52.074;4.754;2023-04-24T13:54:32;12.60;99.90
3562;DHT22;1795;52.074;4.754;2023-04-24T13:57:01;12.60;99.90
3562;DHT22;1795;52.074;4.754;2023-04-24T13:59:29;12.60;99.90
3562;DHT22;1795;52.074;4.754;2023-04-24T14:01:59;12.60;99.90
3562;DHT22;1795;52.074;4.754;2023-04-24T14:04:27;12.70;99.90
3562;DHT22;1795;52.074;4.754;2023-04-24T14:06:55;12.70;99.90
3562;DHT22;1795;52.074;4.754;2023-04-24T14:09:23;12.70;99.90
3562;DHT22;1795;52.074;4.754;2023-04-24T14:11:52;12.70;99.90
3562;DHT22;1795;52.074;4.754;2023-04-24T14:14:20;12.70;99.90
3562;DHT22;1795;52.074;4.754;2023-04-24T14:16:48;12.70;99.90
3562;DHT22;1795;52.074;4.754;2023-04-24T14:19:17;12.70;99.90
3562;DHT22;1795;52.074;4.754;2023-04-24T14:21:45;12.70;99.90
3562;DHT22;1795;52.074;4.754;2023-04-24T14:24:13;12.60;99.90
3562;DHT22;1795;52.074;4.754;2023-04-24T14:26:42;12.60;99.90
3562;DHT22;1795;52.074;4.754;2023-04-24T14:29:10;12.60;99.90
3562;DHT22;1795;52.074;4.754;2023-04-24T14:31:41;12.60;99.90
3562;DHT22;1795;52.074;4.754;2023-04-24T14:34:09;12.60;99.90
3562;DHT22;1795;52.074;4.754;2023-04-24T14:36:39;12.50;99.90
3562;DHT22;1795;52.074;4.754;2023-04-24T14:39:07;12.60;99.90
3562;DHT22;1795;52.074;4.754;2023-04-24T14:41:35;12.60;99.90
3562;DHT22;1795;52.074;4.754;2023-04-24T14:44:04;12.50;99.90
3562;DHT22;1795;52.074;4.754;2023-04-24T14:46:32;12.50;99.90
3562;DHT22;1795;52.074;4.754;2023-04-24T14:49:00;12.60;99.90
3562;DHT22;1795;52.074;4.754;2023-04-24T14:51:28;12.60;99.90
3562;DHT22;1795;52.074;4.754;2023-04-24T14:53:58;12.60;99.90
3562;DHT22;1795;52.074;4.754;2023-04-24T14:56:26;12.50;99.90
3562;DHT22;1795;52.074;4.754;2023-04-24T14:58:55;12.60;99.90
3562;DHT22;1795;52.074;4.754;2023-04-24T15:01:23;12.60;99.90
3562;DHT22;1795;52.074;4.754;2023-04-24T15:03:51;12.70;99.90
3562;DHT22;1795;52.074;4.754;2023-04-24T15:06:20;12.70;99.90
3562;DHT22;1795;52.074;4.754;2023-04-24T15:08:48;12.80;99.90
3562;DHT22;1795;52.074;4.754;2023-04-24T15:11:18;12.80;99.90
3562;DHT22;1795;52.074;4.754;2023-04-24T15:13:47;12.80;99.90
3562;DHT22;1795;52.074;4.754;2023-04-24T15:16:15;12.90;99.90
3562;DHT22;1795;52.074;4.754;2023-04-24T15:18:43;12.90;99.90
3562;DHT22;1795;52.074;4.754;2023-04-24T15:21:11;12.90;99.90
3562;DHT22;1795;52.074;4.754;2023-04-24T15:23:39;12.90;99.90
3562;DHT22;1795;52.074;4.754;2023-04-24T15:26:07;13.00;99.90
3562;DHT22;1795;52.074;4.754;2023-04-24T15:28:37;13.00;99.90
3562;DHT22;1795;52.074;4.754;2023-04-24T15:31:05;13.00;99.90
3562;DHT22;1795;52.074;4.754;2023-04-24T15:33:33;13.00;99.90
3562;DHT22;1795;52.074;4.754;2023-04-24T15:36:01;13.00;99.90
3562;DHT22;1795;52.074;4.754;2023-04-24T15:38:29;13.00;99.90
3562;DHT22;1795;52.074;4.754;2023-04-24T15:40:57;13.00;99.90
3562;DHT22;1795;52.074;4.754;2023-04-24T15:43:25;13.00;99.90
3562;DHT22;1795;52.074;4.754;2023-04-24T15:45:54;13.00;99.90
3562;DHT22;1795;52.074;4.754;2023-04-24T15:48:23;13.00;99.90
3562;DHT22;1795;52.074;4.754;2023-04-24T15:50:51;13.00;99.90
3562;DHT22;1795;52.074;4.754;2023-04-24T15:53:19;13.10;99.90
3562;DHT22;1795;52.074;4.754;2023-04-24T15:55:48;13.10;99.90
3562;DHT22;1795;52.074;4.754;2023-04-24T15:58:17;13.10;99.90
3562;DHT22;1795;52.074;4.754;2023-04-24T16:00:46;13.10;99.90
3562;DHT22;1795;52.074;4.754;2023-04-24T16:03:17;13.10;99.90
3562;DHT22;1795;52.074;4.754;2023-04-24T16:05:45;13.10;99.90
3562;DHT22;1795;52.074;4.754;2023-04-24T16:08:13;13.10;99.90
3562;DHT22;1795;52.074;4.754;2023-04-24T16:10:41;13.10;99.90
3562;DHT22;1795;52.074;4.754;2023-04-24T16:13:09;13.10;99.90
3562;DHT22;1795;52.074;4.754;2023-04-24T16:15:38;13.20;99.90
3562;DHT22;1795;52.074;4.754;2023-04-24T16:18:07;13.20;99.90